sensor_id;sensor_type;location;lat;lon;timestamp;temperature;humidity
2955;DHT22;1487;51.470;6.938;2022-10-16T00:00:41;13.60;99.90
2955;DHT22;1487;51.470;6.938;2022-10-16T00:03:08;13.60;99.90
2955;DHT22;1487;51.470;6.938;2022-10-16T00:05:39;13.60;99.90
2955;DHT22;1487;51.470;6.938;2022-10-16T00:08:06;13.60;99.90
2955;DHT22;1487;51.470;6.938;2022-10-16T00:10:34;13.60;99.90
2955;DHT22;1487;51.470;6.938;2022-10-16T00:13:02;13.60;99.90
2955;DHT22;1487;51.470;6.938;2022-10-16T00:15:30;13.60;99.90
2955;DHT22;1487;51.470;6.938;2022-10-16T00:17:59;13.60;99.90
2955;DHT22;1487;51.470;6.938;2022-10-16T00:20:26;13.60;99.90
2955;DHT22;1487;51.470;6.938;2022-10-16T00:22:52;13.60;99.90
2955;DHT22;1487;51.470;6.938;2022-10-16T00:25:19;13.60;99.90
2955;DHT22;1487;51.470;6.938;2022-10-16T00:27:46;13.60;99.90
2955;DHT22;1487;51.470;6.938;2022-10-16T00:30:14;13.60;99.90
2955;DHT22;1487;51.470;6.938;2022-10-16T00:32:41;13.60;99.90
2955;DHT22;1487;51.470;6.938;2022-10-16T00:35:08;13.60;99.90
2955;DHT22;1487;51.470;6.938;2022-10-16T00:37:35;13.60;99.90
2955;DHT22;1487;51.470;6.938;2022-10-16T00:40:02;13.60;99.90
2955;DHT22;1487;51.470;6.938;2022-10-16T00:42:29;13.60;99.90
2955;DHT22;1487;51.470;6.938;2022-10-16T00:44:57;13.60;99.90
2955;DHT22;1487;51.470;6.938;2022-10-16T00:47:27;13.60;99.90
2955;DHT22;1487;51.470;6.938;2022-10-16T00:50:00;13.60;99.90
2955;DHT22;1487;51.470;6.938;2022-10-16T00:52:28;13.60;99.90
2955;DHT22;1487;51.470;6.938;2022-10-16T00:54:56;13.60;99.90
2955;DHT22;1487;51.470;6.938;2022-10-16T00:57:24;13.60;99.90
2955;DHT22;1487;51.470;6.938;2022-10-16T00:59:51;13.60;99.90
2955;DHT22;1487;51.470;6.938;2022-10-16T01:02:18;13.50;99.90
2955;DHT22;1487;51.470;6.938;2022-10-16T01:04:49;13.60;99.90
2955;DHT22;1487;51.470;6.938;2022-10-16T01:07:29;13.60;99.90
2955;DHT22;1487;51.470;6.938;2022-10-16T01:10:07;13.60;99.90
2955;DHT22;1487;51.470;6.938;2022-10-16T01:12:40;13.50;99.90
2955;DHT22;1487;51.470;6.938;2022-10-16T01:15:12;13.50;99.90
2955;DHT22;1487;51.470;6.938;2022-10-16T01:17:44;13.50;99.90
2955;DHT22;1487;51.470;6.938;2022-10-16T01:20:20;13.50;99.90
2955;DHT22;1487;51.470;6.938;2022-10-16T01:23:01;13.50;99.90
2955;DHT22;1487;51.470;6.938;2022-10-16T01:25:37;13.40;99.90
2955;DHT22;1487;51.470;6.938;2022-10-16T01:28:09;13.30;99.90
2955;DHT22;1487;51.470;6.938;2022-10-16T01:30:40;13.30;99.90
2955;DHT22;1487;51.470;6.938;2022-10-16T01:33:12;13.30;99.90
2955;DHT22;1487;51.470;6.938;2022-10-16T01:35:43;13.30;99.90
2955;DHT22;1487;51.470;6.938;2022-10-16T01:38:16;13.30;99.90
2955;DHT22;1487;51.470;6.938;2022-10-16T01:40:47;13.30;99.90
2955;DHT22;1487;51.470;6.938;2022-10-16T01:43:20;13.20;99.90
2955;DHT22;1487;51.470;6.938;2022-10-16T01:45:48;13.10;99.90
2955;DHT22;1487;51.470;6.938;2022-10-16T01:48:17;13.10;99.90
2955;DHT22;1487;51.470;6.938;2022-10-16T01:51:02;13.10;99.90
2955;DHT22;1487;51.470;6.938;2022-10-16T01:53:31;13.20;99.90
2955;DHT22;1487;51.470;6.938;2022-10-16T01:55:59;13.20;99.90
2955;DHT22;1487;51.470;6.938;2022-10-16T01:58:29;13.20;99.90
2955;DHT22;1487;51.470;6.938;2022-10-16T02:01:00;13.20;99.90
2955;DHT22;1487;51.470;6.938;2022-10-16T02:03:28;13.20;99.90
2955;DHT22;1487;51.470;6.938;2022-10-16T02:05:56;13.20;99.90
2955;DHT22;1487;51.470;6.938;2022-10-16T02:08:26;13.30;99.90
2955;DHT22;1487;51.470;6.938;2022-10-16T02:10:54;13.30;99.90
2955;DHT22;1487;51.470;6.938;2022-10-16T02:13:25;13.30;99.90
2955;DHT22;1487;51.470;6.938;2022-10-16T02:15:55;13.30;99.90
2955;DHT22;1487;51.470;6.938;2022-10-16T02:18:22;13.20;99.90
2955;DHT22;1487;51.470;6.938;2022-10-16T02:20:55;13.20;99.90
2955;DHT22;1487;51.470;6.938;2022-10-16T02:23:28;13.20;99.90
2955;DHT22;1487;51.470;6.938;2022-10-16T02:25:59;13.20;99.90
2955;DHT22;1487;51.470;6.938;2022-10-16T02:28:33;13.20;99.90
2955;DHT22;1487;51.470;6.938;2022-10-16T02:31:06;13.20;99.90
2955;DHT22;1487;51.470;6.938;2022-10-16T02:33:35;13.20;99.90
2955;DHT22;1487;51.470;6.938;2022-10-16T02:36:04;13.20;99.90
2955;DHT22;1487;51.470;6.938;2022-10-16T02:38:31;13.20;99.90
2955;DHT22;1487;51.470;6.938;2022-10-16T02:40:58;13.30;99.90
2955;DHT22;1487;51.470;6.938;2022-10-16T02:43:26;13.30;99.90
2955;DHT22;1487;51.470;6.938;2022-10-16T02:45:53;13.30;99.90
2955;DHT22;1487;51.470;6.938;2022-10-16T02:48:21;13.30;99.90
2955;DHT22;1487;51.470;6.938;2022-10-16T02:50:47;13.40;99.90
2955;DHT22;1487;51.470;6.938;2022-10-16T02:53:14;13.40;99.90
2955;DHT22;1487;51.470;6.938;2022-10-16T02:55:41;13.40;99.90
2955;DHT22;1487;51.470;6.938;2022-10-16T02:58:08;13.50;99.90
2955;DHT22;1487;51.470;6.938;2022-10-16T03:00:35;13.50;99.90
2955;DHT22;1487;51.470;6.938;2022-10-16T03:03:01;13.40;99.90
2955;DHT22;1487;51.470;6.938;2022-10-16T03:05:30;13.40;99.90
2955;DHT22;1487;51.470;6.938;2022-10-16T03:07:57;13.40;99.90
2955;DHT22;1487;51.470;6.938;2022-10-16T03:10:25;13.50;99.90
2955;DHT22;1487;51.470;6.938;2022-10-16T03:12:52;13.50;99.90
2955;DHT22;1487;51.470;6.938;2022-10-16T03:15:19;13.50;99.90
2955;DHT22;1487;51.470;6.938;2022-10-16T03:17:46;13.50;99.90
2955;DHT22;1487;51.470;6.938;2022-10-16T03:20:13;13.50;99.90
2955;DHT22;1487;51.470;6.938;2022-10-16T03:22:41;13.50;99.90
2955;DHT22;1487;51.470;6.938;2022-10-16T03:25:08;13.50;99.90
2955;DHT22;1487;51.470;6.938;2022-10-16T03:27:35;13.50;99.90
2955;DHT22;1487;51.470;6.938;2022-10-16T03:30:02;13.40;99.90
2955;DHT22;1487;51.470;6.938;2022-10-16T03:32:29;13.40;99.90
2955;DHT22;1487;51.470;6.938;2022-10-16T03:34:56;13.50;99.90
2955;DHT22;1487;51.470;6.938;2022-10-16T03:37:23;13.50;99.90
2955;DHT22;1487;51.470;6.938;2022-10-16T03:39:51;13.40;99.90
2955;DHT22;1487;51.470;6.938;2022-10-16T03:42:18;13.50;99.90
2955;DHT22;1487;51.470;6.938;2022-10-16T03:44:45;13.50;99.90
2955;DHT22;1487;51.470;6.938;2022-10-16T03:47:12;13.40;99.90
2955;DHT22;1487;51.470;6.938;2022-10-16T03:49:39;13.40;99.90
2955;DHT22;1487;51.470;6.938;2022-10-16T03:52:06;13.50;99.90
2955;DHT22;1487;51.470;6.938;2022-10-16T03:54:32;13.40;99.90
2955;DHT22;1487;51.470;6.938;2022-10-16T03:57:01;13.30;99.90
2955;DHT22;1487;51.470;6.938;2022-10-16T03:59:27;13.30;99.90
2955;DHT22;1487;51.470;6.938;2022-10-16T04:01:54;13.30;99.90
2955;DHT22;1487;51.470;6.938;2022-10-16T04:04:21;13.30;99.90
2955;DHT22;1487;51.470;6.938;2022-10-16T04:06:48;13.20;99.90
2955;DHT22;1487;51.470;6.938;2022-10-16T04:09:15;13.10;99.90
2955;DHT22;1487;51.470;6.938;2022-10-16T04:11:41;13.00;99.90
2955;DHT22;1487;51.470;6.938;2022-10-16T04:14:10;13.00;99.90
2955;DHT22;1487;51.470;6.938;2022-10-16T04:16:36;13.00;99.90
2955;DHT22;1487;51.470;6.938;2022-10-16T04:19:03;13.00;99.90
2955;DHT22;1487;51.470;6.938;2022-10-16T04:21:30;13.00;99.90
2955;DHT22;1487;51.470;6.938;2022-10-16T04:23:57;13.10;99.90
2955;DHT22;1487;51.470;6.938;2022-10-16T04:26:24;13.00;99.90
2955;DHT22;1487;51.470;6.938;2022-10-16T04:28:50;13.00;99.90
2955;DHT22;1487;51.470;6.938;2022-10-16T04:31:19;13.00;99.90
2955;DHT22;1487;51.470;6.938;2022-10-16T04:33:46;13.00;99.90
2955;DHT22;1487;51.470;6.938;2022-10-16T04:36:13;13.00;99.90
2955;DHT22;1487;51.470;6.938;2022-10-16T04:38:40;13.00;99.90
2955;DHT22;1487;51.470;6.938;2022-10-16T04:41:07;13.00;99.90
2955;DHT22;1487;51.470;6.938;2022-10-16T04:43:34;12.90;99.90
2955;DHT22;1487;51.470;6.938;2022-10-16T04:46:01;12.90;99.90
2955;DHT22;1487;51.470;6.938;2022-10-16T04:48:37;12.90;99.90
2955;DHT22;1487;51.470;6.938;2022-10-16T04:51:04;12.90;99.90
2955;DHT22;1487;51.470;6.938;2022-10-16T04:53:31;12.80;99.90
2955;DHT22;1487;51.470;6.938;2022-10-16T04:55:59;12.80;99.90
2955;DHT22;1487;51.470;6.938;2022-10-16T04:58:25;12.80;99.90
2955;DHT22;1487;51.470;6.938;2022-10-16T05:00:53;12.80;99.90
2955;DHT22;1487;51.470;6.938;2022-10-16T05:03:19;12.80;99.90
2955;DHT22;1487;51.470;6.938;2022-10-16T05:05:48;12.80;99.90
2955;DHT22;1487;51.470;6.938;2022-10-16T05:08:15;12.80;99.90
2955;DHT22;1487;51.470;6.938;2022-10-16T05:10:43;12.80;99.90
2955;DHT22;1487;51.470;6.938;2022-10-16T05:13:11;12.80;99.90
2955;DHT22;1487;51.470;6.938;2022-10-16T05:15:38;12.80;99.90
2955;DHT22;1487;51.470;6.938;2022-10-16T05:18:05;12.80;99.90
2955;DHT22;1487;51.470;6.938;2022-10-16T05:20:32;12.80;99.90
2955;DHT22;1487;51.470;6.938;2022-10-16T05:23:00;12.80;99.90
2955;DHT22;1487;51.470;6.938;2022-10-16T05:25:27;12.80;99.90
2955;DHT22;1487;51.470;6.938;2022-10-16T05:27:54;12.90;99.90
2955;DHT22;1487;51.470;6.938;2022-10-16T05:30:20;12.90;99.90
2955;DHT22;1487;51.470;6.938;2022-10-16T05:32:48;12.90;99.90
2955;DHT22;1487;51.470;6.938;2022-10-16T05:35:16;12.90;99.90
2955;DHT22;1487;51.470;6.938;2022-10-16T05:37:43;12.90;99.90
2955;DHT22;1487;51.470;6.938;2022-10-16T05:40:11;12.90;99.90
2955;DHT22;1487;51.470;6.938;2022-10-16T05:42:38;12.90;99.90
2955;DHT22;1487;51.470;6.938;2022-10-16T05:45:07;12.90;99.90
2955;DHT22;1487;51.470;6.938;2022-10-16T05:47:35;12.90;99.90
2955;DHT22;1487;51.470;6.938;2022-10-16T05:50:02;12.90;99.90
2955;DHT22;1487;51.470;6.938;2022-10-16T05:52:29;12.90;99.90
2955;DHT22;1487;51.470;6.938;2022-10-16T05:54:56;13.00;99.90
2955;DHT22;1487;51.470;6.938;2022-10-16T05:57:24;13.00;99.90
2955;DHT22;1487;51.470;6.938;2022-10-16T05:59:51;13.00;99.90
2955;DHT22;1487;51.470;6.938;2022-10-16T06:02:18;13.00;99.90
2955;DHT22;1487;51.470;6.938;2022-10-16T06:04:45;13.00;99.90
2955;DHT22;1487;51.470;6.938;2022-10-16T06:07:11;13.00;99.90
2955;DHT22;1487;51.470;6.938;2022-10-16T06:09:38;13.00;99.90
2955;DHT22;1487;51.470;6.938;2022-10-16T06:12:05;12.90;99.90
2955;DHT22;1487;51.470;6.938;2022-10-16T06:14:33;13.00;99.90
2955;DHT22;1487;51.470;6.938;2022-10-16T06:17:00;13.00;99.90
2955;DHT22;1487;51.470;6.938;2022-10-16T06:19:27;13.00;99.90
2955;DHT22;1487;51.470;6.938;2022-10-16T06:21:53;13.00;99.90
2955;DHT22;1487;51.470;6.938;2022-10-16T06:24:20;13.00;99.90
2955;DHT22;1487;51.470;6.938;2022-10-16T06:26:47;13.10;99.90
2955;DHT22;1487;51.470;6.938;2022-10-16T06:29:14;13.10;99.90
2955;DHT22;1487;51.470;6.938;2022-10-16T06:31:42;13.10;99.90
2955;DHT22;1487;51.470;6.938;2022-10-16T06:34:10;13.10;99.90
2955;DHT22;1487;51.470;6.938;2022-10-16T06:36:37;13.20;99.90
2955;DHT22;1487;51.470;6.938;2022-10-16T06:39:05;13.20;99.90
2955;DHT22;1487;51.470;6.938;2022-10-16T06:41:33;13.30;99.90
2955;DHT22;1487;51.470;6.938;2022-10-16T06:44:00;13.30;99.90
2955;DHT22;1487;51.470;6.938;2022-10-16T06:46:27;13.40;99.90
2955;DHT22;1487;51.470;6.938;2022-10-16T06:48:56;13.50;99.90
2955;DHT22;1487;51.470;6.938;2022-10-16T06:51:24;13.60;99.90
2955;DHT22;1487;51.470;6.938;2022-10-16T06:53:52;13.60;99.90
2955;DHT22;1487;51.470;6.938;2022-10-16T06:56:20;13.70;99.90
2955;DHT22;1487;51.470;6.938;2022-10-16T06:58:48;13.70;99.90
2955;DHT22;1487;51.470;6.938;2022-10-16T07:01:16;13.70;99.90
2955;DHT22;1487;51.470;6.938;2022-10-16T07:03:45;13.70;99.90
2955;DHT22;1487;51.470;6.938;2022-10-16T07:06:15;13.80;99.90
2955;DHT22;1487;51.470;6.938;2022-10-16T07:08:43;13.70;99.90
2955;DHT22;1487;51.470;6.938;2022-10-16T07:11:13;13.70;99.90
2955;DHT22;1487;51.470;6.938;2022-10-16T07:13:42;13.80;99.90
2955;DHT22;1487;51.470;6.938;2022-10-16T07:16:10;13.90;99.90
2955;DHT22;1487;51.470;6.938;2022-10-16T07:18:37;13.90;99.90
2955;DHT22;1487;51.470;6.938;2022-10-16T07:21:06;13.80;99.90
2955;DHT22;1487;51.470;6.938;2022-10-16T07:23:35;13.80;99.90
2955;DHT22;1487;51.470;6.938;2022-10-16T07:26:02;13.70;99.90
2955;DHT22;1487;51.470;6.938;2022-10-16T07:28:29;13.70;99.90
2955;DHT22;1487;51.470;6.938;2022-10-16T07:31:00;13.80;99.90
2955;DHT22;1487;51.470;6.938;2022-10-16T07:33:27;13.90;99.90
2955;DHT22;1487;51.470;6.938;2022-10-16T07:35:55;14.00;99.90
2955;DHT22;1487;51.470;6.938;2022-10-16T07:38:22;14.20;99.90
2955;DHT22;1487;51.470;6.938;2022-10-16T07:40:56;14.40;99.90
2955;DHT22;1487;51.470;6.938;2022-10-16T07:43:23;14.60;99.90
2955;DHT22;1487;51.470;6.938;2022-10-16T07:45:50;14.90;99.90
2955;DHT22;1487;51.470;6.938;2022-10-16T07:48:18;15.70;99.90
2955;DHT22;1487;51.470;6.938;2022-10-16T07:50:45;16.50;99.90
2955;DHT22;1487;51.470;6.938;2022-10-16T07:53:12;17.50;99.90
2955;DHT22;1487;51.470;6.938;2022-10-16T07:55:39;18.50;99.90
2955;DHT22;1487;51.470;6.938;2022-10-16T07:58:07;19.00;99.90
2955;DHT22;1487;51.470;6.938;2022-10-16T08:00:36;19.70;99.90
2955;DHT22;1487;51.470;6.938;2022-10-16T08:03:03;20.60;99.90
2955;DHT22;1487;51.470;6.938;2022-10-16T08:05:31;21.00;99.90
2955;DHT22;1487;51.470;6.938;2022-10-16T08:07:59;21.30;99.90
2955;DHT22;1487;51.470;6.938;2022-10-16T08:10:27;21.60;99.90
2955;DHT22;1487;51.470;6.938;2022-10-16T08:12:54;21.90;99.90
2955;DHT22;1487;51.470;6.938;2022-10-16T08:15:22;22.30;99.90
2955;DHT22;1487;51.470;6.938;2022-10-16T08:17:57;22.50;99.90
2955;DHT22;1487;51.470;6.938;2022-10-16T08:20:25;23.10;99.90
2955;DHT22;1487;51.470;6.938;2022-10-16T08:22:52;23.50;99.90
2955;DHT22;1487;51.470;6.938;2022-10-16T08:25:19;23.90;99.90
2955;DHT22;1487;51.470;6.938;2022-10-16T08:27:46;24.30;99.90
2955;DHT22;1487;51.470;6.938;2022-10-16T08:30:14;24.30;99.90
2955;DHT22;1487;51.470;6.938;2022-10-16T08:32:42;24.40;99.90
2955;DHT22;1487;51.470;6.938;2022-10-16T08:35:09;24.20;99.90
2955;DHT22;1487;51.470;6.938;2022-10-16T08:37:37;24.50;99.90
2955;DHT22;1487;51.470;6.938;2022-10-16T08:40:06;24.00;99.90
2955;DHT22;1487;51.470;6.938;2022-10-16T08:42:44;23.30;99.90
2955;DHT22;1487;51.470;6.938;2022-10-16T08:45:34;23.00;99.90
2955;DHT22;1487;51.470;6.938;2022-10-16T08:48:15;23.70;99.90
2955;DHT22;1487;51.470;6.938;2022-10-16T08:50:44;24.10;99.90
2955;DHT22;1487;51.470;6.938;2022-10-16T08:53:16;25.20;99.90
2955;DHT22;1487;51.470;6.938;2022-10-16T08:55:48;25.20;99.90
2955;DHT22;1487;51.470;6.938;2022-10-16T08:58:18;24.20;99.90
2955;DHT22;1487;51.470;6.938;2022-10-16T09:00:47;23.70;99.90
2955;DHT22;1487;51.470;6.938;2022-10-16T09:03:27;24.40;99.90
2955;DHT22;1487;51.470;6.938;2022-10-16T09:06:10;24.90;99.90
2955;DHT22;1487;51.470;6.938;2022-10-16T09:08:46;24.00;99.90
2955;DHT22;1487;51.470;6.938;2022-10-16T09:11:20;23.90;99.90
2955;DHT22;1487;51.470;6.938;2022-10-16T09:13:55;23.50;99.90
2955;DHT22;1487;51.470;6.938;2022-10-16T09:16:28;22.60;99.90
2955;DHT22;1487;51.470;6.938;2022-10-16T09:19:03;22.30;99.90
2955;DHT22;1487;51.470;6.938;2022-10-16T09:21:34;21.70;99.90
2955;DHT22;1487;51.470;6.938;2022-10-16T09:24:10;20.80;99.90
2955;DHT22;1487;51.470;6.938;2022-10-16T09:26:38;20.00;99.90
2955;DHT22;1487;51.470;6.938;2022-10-16T09:29:05;19.70;99.90
2955;DHT22;1487;51.470;6.938;2022-10-16T09:31:32;19.50;99.90
2955;DHT22;1487;51.470;6.938;2022-10-16T09:34:04;19.60;99.90
2955;DHT22;1487;51.470;6.938;2022-10-16T09:36:39;19.60;99.90
2955;DHT22;1487;51.470;6.938;2022-10-16T09:39:08;19.30;99.90
2955;DHT22;1487;51.470;6.938;2022-10-16T09:41:37;19.00;99.90
2955;DHT22;1487;51.470;6.938;2022-10-16T09:44:14;18.70;99.90
2955;DHT22;1487;51.470;6.938;2022-10-16T09:46:43;18.50;99.90
2955;DHT22;1487;51.470;6.938;2022-10-16T09:49:22;18.40;99.90
2955;DHT22;1487;51.470;6.938;2022-10-16T09:51:50;18.30;99.90
2955;DHT22;1487;51.470;6.938;2022-10-16T09:54:20;18.30;99.90
2955;DHT22;1487;51.470;6.938;2022-10-16T09:56:48;18.20;99.90
2955;DHT22;1487;51.470;6.938;2022-10-16T09:59:20;18.40;99.90
2955;DHT22;1487;51.470;6.938;2022-10-16T10:01:50;18.40;99.90
2955;DHT22;1487;51.470;6.938;2022-10-16T10:04:20;18.70;99.90
2955;DHT22;1487;51.470;6.938;2022-10-16T10:06:49;18.70;99.90
2955;DHT22;1487;51.470;6.938;2022-10-16T10:09:19;18.80;99.90
2955;DHT22;1487;51.470;6.938;2022-10-16T10:11:54;19.00;99.90
2955;DHT22;1487;51.470;6.938;2022-10-16T10:14:24;19.40;99.90
2955;DHT22;1487;51.470;6.938;2022-10-16T10:17:00;19.80;99.90
2955;DHT22;1487;51.470;6.938;2022-10-16T10:19:29;19.80;99.90
2955;DHT22;1487;51.470;6.938;2022-10-16T10:21:56;19.40;99.90
2955;DHT22;1487;51.470;6.938;2022-10-16T10:24:22;19.10;99.90
2955;DHT22;1487;51.470;6.938;2022-10-16T10:26:56;18.60;99.90
2955;DHT22;1487;51.470;6.938;2022-10-16T10:29:42;18.60;99.90
2955;DHT22;1487;51.470;6.938;2022-10-16T10:32:20;18.50;99.90
2955;DHT22;1487;51.470;6.938;2022-10-16T10:35:01;18.60;99.90
2955;DHT22;1487;51.470;6.938;2022-10-16T10:37:43;18.90;99.90
2955;DHT22;1487;51.470;6.938;2022-10-16T10:40:24;19.60;99.90
2955;DHT22;1487;51.470;6.938;2022-10-16T10:42:58;20.60;99.90
2955;DHT22;1487;51.470;6.938;2022-10-16T10:45:29;21.40;99.90
2955;DHT22;1487;51.470;6.938;2022-10-16T10:48:19;21.70;99.90
2955;DHT22;1487;51.470;6.938;2022-10-16T10:50:52;21.90;99.90
2955;DHT22;1487;51.470;6.938;2022-10-16T10:53:32;21.70;99.90
2955;DHT22;1487;51.470;6.938;2022-10-16T10:56:07;22.50;99.90
2955;DHT22;1487;51.470;6.938;2022-10-16T10:58:54;23.10;99.90
2955;DHT22;1487;51.470;6.938;2022-10-16T11:01:28;23.50;99.90
2955;DHT22;1487;51.470;6.938;2022-10-16T11:04:23;23.40;99.90
2955;DHT22;1487;51.470;6.938;2022-10-16T11:06:57;23.90;99.90
2955;DHT22;1487;51.470;6.938;2022-10-16T11:09:27;24.60;99.90
2955;DHT22;1487;51.470;6.938;2022-10-16T11:11:58;25.30;99.40
2955;DHT22;1487;51.470;6.938;2022-10-16T11:14:30;25.30;96.60
2955;DHT22;1487;51.470;6.938;2022-10-16T11:17:04;25.20;98.10
2955;DHT22;1487;51.470;6.938;2022-10-16T11:19:39;25.10;95.80
2955;DHT22;1487;51.470;6.938;2022-10-16T11:22:14;24.40;95.10
2955;DHT22;1487;51.470;6.938;2022-10-16T11:24:45;24.00;99.00
2955;DHT22;1487;51.470;6.938;2022-10-16T11:27:16;22.70;99.90
2955;DHT22;1487;51.470;6.938;2022-10-16T11:29:49;21.90;99.90
2955;DHT22;1487;51.470;6.938;2022-10-16T11:32:23;21.40;99.90
2955;DHT22;1487;51.470;6.938;2022-10-16T11:34:55;21.30;99.90
2955;DHT22;1487;51.470;6.938;2022-10-16T11:37:28;21.40;99.90
2955;DHT22;1487;51.470;6.938;2022-10-16T11:40:02;21.20;99.90
2955;DHT22;1487;51.470;6.938;2022-10-16T11:42:33;21.10;99.90
2955;DHT22;1487;51.470;6.938;2022-10-16T11:45:12;20.60;99.90
2955;DHT22;1487;51.470;6.938;2022-10-16T11:47:45;20.20;99.90
2955;DHT22;1487;51.470;6.938;2022-10-16T11:50:20;20.10;99.90
2955;DHT22;1487;51.470;6.938;2022-10-16T11:52:55;20.10;99.90
2955;DHT22;1487;51.470;6.938;2022-10-16T11:55:32;20.60;99.90
2955;DHT22;1487;51.470;6.938;2022-10-16T11:58:03;21.10;99.90
2955;DHT22;1487;51.470;6.938;2022-10-16T12:00:38;21.30;99.90
2955;DHT22;1487;51.470;6.938;2022-10-16T12:03:13;21.30;99.90
2955;DHT22;1487;51.470;6.938;2022-10-16T12:05:55;21.10;99.90
2955;DHT22;1487;51.470;6.938;2022-10-16T12:08:26;21.10;99.90
2955;DHT22;1487;51.470;6.938;2022-10-16T12:10:53;21.30;99.90
2955;DHT22;1487;51.470;6.938;2022-10-16T12:13:31;21.30;99.90
2955;DHT22;1487;51.470;6.938;2022-10-16T12:16:06;21.20;99.90
2955;DHT22;1487;51.470;6.938;2022-10-16T12:18:33;20.70;99.90
2955;DHT22;1487;51.470;6.938;2022-10-16T12:21:00;20.40;99.90
2955;DHT22;1487;51.470;6.938;2022-10-16T12:23:33;20.30;99.90
2955;DHT22;1487;51.470;6.938;2022-10-16T12:26:03;20.40;99.90
2955;DHT22;1487;51.470;6.938;2022-10-16T12:28:32;20.50;99.90
2955;DHT22;1487;51.470;6.938;2022-10-16T12:31:01;20.40;99.90
2955;DHT22;1487;51.470;6.938;2022-10-16T12:33:30;20.30;99.90
2955;DHT22;1487;51.470;6.938;2022-10-16T12:36:00;20.20;99.90
2955;DHT22;1487;51.470;6.938;2022-10-16T12:38:30;20.10;99.90
2955;DHT22;1487;51.470;6.938;2022-10-16T12:41:07;20.20;99.90
2955;DHT22;1487;51.470;6.938;2022-10-16T12:43:39;20.40;99.90
2955;DHT22;1487;51.470;6.938;2022-10-16T12:46:35;20.70;99.90
2955;DHT22;1487;51.470;6.938;2022-10-16T12:49:21;21.00;99.90
2955;DHT22;1487;51.470;6.938;2022-10-16T12:51:50;21.20;99.90
2955;DHT22;1487;51.470;6.938;2022-10-16T12:54:18;21.50;99.90
2955;DHT22;1487;51.470;6.938;2022-10-16T12:56:54;22.20;99.90
2955;DHT22;1487;51.470;6.938;2022-10-16T12:59:33;22.30;99.90
2955;DHT22;1487;51.470;6.938;2022-10-16T13:02:16;22.20;99.90
2955;DHT22;1487;51.470;6.938;2022-10-16T13:05:19;22.70;99.90
2955;DHT22;1487;51.470;6.938;2022-10-16T13:07:59;24.20;99.90
2955;DHT22;1487;51.470;6.938;2022-10-16T13:10:37;25.10;99.90
2955;DHT22;1487;51.470;6.938;2022-10-16T13:13:24;25.40;98.20
2955;DHT22;1487;51.470;6.938;2022-10-16T13:16:07;24.80;97.20
2955;DHT22;1487;51.470;6.938;2022-10-16T13:18:46;24.50;99.10
2955;DHT22;1487;51.470;6.938;2022-10-16T13:21:26;24.40;99.00
2955;DHT22;1487;51.470;6.938;2022-10-16T13:24:04;24.70;98.00
2955;DHT22;1487;51.470;6.938;2022-10-16T13:26:41;25.30;94.90
2955;DHT22;1487;51.470;6.938;2022-10-16T13:29:12;25.20;92.90
2955;DHT22;1487;51.470;6.938;2022-10-16T13:31:40;24.60;93.30
2955;DHT22;1487;51.470;6.938;2022-10-16T13:34:12;24.70;95.40
2955;DHT22;1487;51.470;6.938;2022-10-16T13:36:44;24.40;92.50
2955;DHT22;1487;51.470;6.938;2022-10-16T13:39:14;24.50;93.30
2955;DHT22;1487;51.470;6.938;2022-10-16T13:41:42;24.00;92.70
2955;DHT22;1487;51.470;6.938;2022-10-16T13:44:17;22.90;95.60
2955;DHT22;1487;51.470;6.938;2022-10-16T13:46:45;22.90;99.60
2955;DHT22;1487;51.470;6.938;2022-10-16T13:49:15;22.80;99.90
2955;DHT22;1487;51.470;6.938;2022-10-16T13:51:54;22.50;99.90
2955;DHT22;1487;51.470;6.938;2022-10-16T13:54:21;22.00;99.90
2955;DHT22;1487;51.470;6.938;2022-10-16T13:56:48;21.60;99.90
2955;DHT22;1487;51.470;6.938;2022-10-16T13:59:25;21.20;99.90
2955;DHT22;1487;51.470;6.938;2022-10-16T14:01:54;21.10;99.90
2955;DHT22;1487;51.470;6.938;2022-10-16T14:04:22;21.10;99.90
2955;DHT22;1487;51.470;6.938;2022-10-16T14:06:50;21.10;99.90
2955;DHT22;1487;51.470;6.938;2022-10-16T14:09:22;21.20;99.90
2955;DHT22;1487;51.470;6.938;2022-10-16T14:11:51;21.00;99.90
2955;DHT22;1487;51.470;6.938;2022-10-16T14:14:19;21.10;99.90
2955;DHT22;1487;51.470;6.938;2022-10-16T14:16:47;21.30;99.90
2955;DHT22;1487;51.470;6.938;2022-10-16T14:19:19;21.50;99.90
2955;DHT22;1487;51.470;6.938;2022-10-16T14:21:47;21.50;99.90
2955;DHT22;1487;51.470;6.938;2022-10-16T14:24:25;21.20;99.90
2955;DHT22;1487;51.470;6.938;2022-10-16T14:26:52;20.80;99.90
2955;DHT22;1487;51.470;6.938;2022-10-16T14:29:20;20.40;99.90
2955;DHT22;1487;51.470;6.938;2022-10-16T14:31:56;20.20;99.90
2955;DHT22;1487;51.470;6.938;2022-10-16T14:34:29;20.00;99.90
2955;DHT22;1487;51.470;6.938;2022-10-16T14:36:59;19.80;99.90
2955;DHT22;1487;51.470;6.938;2022-10-16T14:39:30;19.80;99.90
2955;DHT22;1487;51.470;6.938;2022-10-16T14:41:57;19.70;99.90
2955;DHT22;1487;51.470;6.938;2022-10-16T14:44:29;19.70;99.90
2955;DHT22;1487;51.470;6.938;2022-10-16T14:46:57;19.70;99.90
2955;DHT22;1487;51.470;6.938;2022-10-16T14:49:25;19.80;99.90
2955;DHT22;1487;51.470;6.938;2022-10-16T14:51:53;19.70;99.90
2955;DHT22;1487;51.470;6.938;2022-10-16T14:54:20;19.60;99.90
2955;DHT22;1487;51.470;6.938;2022-10-16T14:56:51;19.50;99.90
2955;DHT22;1487;51.470;6.938;2022-10-16T14:59:22;19.50;99.90
2955;DHT22;1487;51.470;6.938;2022-10-16T15:01:51;19.40;99.90
2955;DHT22;1487;51.470;6.938;2022-10-16T15:04:19;19.40;99.90
2955;DHT22;1487;51.470;6.938;2022-10-16T15:06:46;19.40;99.90
2955;DHT22;1487;51.470;6.938;2022-10-16T15:09:13;19.50;99.90
2955;DHT22;1487;51.470;6.938;2022-10-16T15:11:40;19.40;99.90
2955;DHT22;1487;51.470;6.938;2022-10-16T15:14:09;19.40;99.90
2955;DHT22;1487;51.470;6.938;2022-10-16T15:16:37;19.30;99.90
2955;DHT22;1487;51.470;6.938;2022-10-16T15:19:04;19.20;99.90
2955;DHT22;1487;51.470;6.938;2022-10-16T15:21:32;19.20;99.90
2955;DHT22;1487;51.470;6.938;2022-10-16T15:24:00;19.10;99.90
2955;DHT22;1487;51.470;6.938;2022-10-16T15:26:28;19.10;99.90
2955;DHT22;1487;51.470;6.938;2022-10-16T15:28:55;19.00;99.90
2955;DHT22;1487;51.470;6.938;2022-10-16T15:31:23;19.00;99.90
2955;DHT22;1487;51.470;6.938;2022-10-16T15:33:50;18.80;99.90
2955;DHT22;1487;51.470;6.938;2022-10-16T15:36:25;18.70;99.90
2955;DHT22;1487;51.470;6.938;2022-10-16T15:38:53;18.60;99.90
2955;DHT22;1487;51.470;6.938;2022-10-16T15:41:20;18.60;99.90
2955;DHT22;1487;51.470;6.938;2022-10-16T15:43:48;18.50;99.90
2955;DHT22;1487;51.470;6.938;2022-10-16T15:46:18;18.40;99.90
2955;DHT22;1487;51.470;6.938;2022-10-16T15:48:45;18.30;99.90
2955;DHT22;1487;51.470;6.938;2022-10-16T15:51:12;18.20;99.90
2955;DHT22;1487;51.470;6.938;2022-10-16T15:53:39;18.20;99.90
2955;DHT22;1487;51.470;6.938;2022-10-16T15:56:10;18.10;99.90
2955;DHT22;1487;51.470;6.938;2022-10-16T15:58:37;18.00;99.90
2955;DHT22;1487;51.470;6.938;2022-10-16T16:01:05;18.00;99.90
2955;DHT22;1487;51.470;6.938;2022-10-16T16:03:33;17.90;99.90
2955;DHT22;1487;51.470;6.938;2022-10-16T16:06:04;17.80;99.90
2955;DHT22;1487;51.470;6.938;2022-10-16T16:08:32;17.80;99.90
2955;DHT22;1487;51.470;6.938;2022-10-16T16:11:00;17.70;99.90
2955;DHT22;1487;51.470;6.938;2022-10-16T16:13:29;17.60;99.90
2955;DHT22;1487;51.470;6.938;2022-10-16T16:15:55;17.60;99.90
2955;DHT22;1487;51.470;6.938;2022-10-16T16:18:22;17.50;99.90
2955;DHT22;1487;51.470;6.938;2022-10-16T16:20:50;17.50;99.90